createdAt,value
2023-05-08T00:01:00.886Z,7.32
2023-05-08T00:03:27.933Z,7.80
2023-05-08T00:05:55.690Z,9.48
2023-05-08T00:08:22.756Z,8.35
2023-05-08T00:10:49.911Z,8.52
2023-05-08T00:13:17.229Z,8.70
2023-05-08T00:15:44.088Z,7.35
2023-05-08T00:18:11.248Z,7.07
2023-05-08T00:20:38.115Z,7.28
2023-05-08T00:23:05.286Z,7.50
2023-05-08T00:25:32.076Z,6.95
2023-05-08T00:27:59.747Z,7.20
2023-05-08T00:30:27.097Z,7.45
2023-05-08T00:32:54.363Z,6.90
2023-05-08T00:35:21.318Z,7.30
2023-05-08T00:37:48.072Z,6.82
2023-05-08T00:40:15.077Z,6.88
2023-05-08T00:42:41.867Z,7.10
2023-05-08T00:45:09.377Z,7.10
2023-05-08T00:47:36.341Z,7.35
2023-05-08T00:50:03.473Z,7.70
2023-05-08T00:52:32.673Z,7.72
2023-05-08T00:55:01.397Z,7.68
2023-05-08T00:57:32.237Z,7.88
2023-05-08T01:00:00.746Z,7.93
2023-05-08T01:02:28.202Z,7.25
2023-05-08T01:04:55.612Z,6.90
2023-05-08T01:07:22.764Z,7.50
2023-05-08T01:09:49.626Z,7.30
2023-05-08T01:12:51.901Z,7.15
2023-05-08T01:15:27.175Z,8.35
2023-05-08T01:18:23.094Z,7.43
2023-05-08T01:21:16.972Z,7.20
2023-05-08T01:24:13.792Z,7.45
2023-05-08T01:27:07.157Z,7.88
2023-05-08T01:30:07.175Z,7.55
2023-05-08T01:32:38.374Z,6.65
2023-05-08T01:35:26.221Z,7.07
2023-05-08T01:38:19.296Z,7.82
2023-05-08T01:40:56.571Z,7.15
2023-05-08T01:44:08.410Z,6.75
2023-05-08T01:46:35.408Z,8.45
2023-05-08T01:49:23.696Z,8.05
2023-05-08T01:51:59.071Z,7.80
2023-05-08T01:54:28.673Z,7.90
2023-05-08T01:56:58.331Z,7.35
2023-05-08T01:59:28.195Z,7.55
2023-05-08T02:01:59.760Z,7.88
2023-05-08T02:04:28.305Z,8.07
2023-05-08T02:06:58.683Z,8.35
2023-05-08T02:09:26.968Z,7.90
2023-05-08T02:11:55.370Z,7.93
2023-05-08T02:14:23.493Z,7.95
2023-05-08T02:16:53.621Z,8.02
2023-05-08T02:19:23.306Z,8.13
2023-05-08T02:21:51.709Z,8.18
2023-05-08T02:24:19.787Z,8.27
2023-05-08T02:26:47.531Z,8.38
2023-05-08T02:29:15.498Z,8.02
2023-05-08T02:31:43.088Z,7.72
2023-05-08T02:34:11.294Z,8.60
2023-05-08T02:36:39.700Z,8.00
2023-05-08T02:39:11.957Z,8.30
2023-05-08T02:41:41.162Z,8.38
2023-05-08T02:44:08.862Z,8.60
2023-05-08T02:46:38.505Z,7.90
2023-05-08T02:49:12.803Z,8.25
2023-05-08T02:51:55.592Z,8.18
2023-05-08T02:54:58.338Z,7.80
2023-05-08T02:57:39.518Z,8.82
2023-05-08T03:00:16.178Z,8.93
2023-05-08T03:02:48.400Z,8.00
2023-05-08T03:05:25.073Z,8.93
2023-05-08T03:07:55.873Z,9.32
2023-05-08T03:10:28.421Z,8.38
2023-05-08T03:12:58.241Z,8.75
2023-05-08T03:15:36.463Z,9.02
2023-05-08T03:18:08.828Z,8.88
2023-05-08T03:20:39.085Z,8.75
2023-05-08T03:23:08.170Z,9.57
2023-05-08T03:25:35.929Z,9.45
2023-05-08T03:28:05.934Z,9.57
2023-05-08T03:30:37.796Z,9.27
2023-05-08T03:33:05.418Z,9.73
2023-05-08T03:35:36.159Z,9.63
2023-05-08T03:38:03.830Z,9.93
2023-05-08T03:40:30.823Z,9.73
2023-05-08T03:43:00.801Z,9.40
2023-05-08T03:45:29.174Z,9.75
2023-05-08T03:47:56.452Z,9.63
2023-05-08T03:50:24.163Z,10.13
2023-05-08T03:52:51.473Z,9.20
2023-05-08T03:55:18.430Z,9.77
2023-05-08T03:58:09.928Z,9.93
2023-05-08T04:00:36.699Z,10.25
2023-05-08T04:03:22.816Z,10.27
2023-05-08T04:06:08.761Z,9.75
2023-05-08T04:08:44.735Z,10.23
2023-05-08T04:11:30.914Z,10.27
2023-05-08T04:14:08.332Z,9.65
2023-05-08T04:16:45.255Z,9.63
2023-05-08T04:19:18.246Z,10.60
2023-05-08T04:21:46.828Z,11.23
2023-05-08T04:24:15.901Z,10.13
2023-05-08T04:26:44.464Z,10.48
2023-05-08T04:29:11.620Z,10.40
2023-05-08T04:31:39.834Z,10.00
2023-05-08T04:34:09.137Z,10.60
2023-05-08T04:36:36.086Z,11.15
2023-05-08T04:39:03.637Z,11.07
2023-05-08T04:41:30.680Z,11.18
2023-05-08T04:43:57.661Z,10.60
2023-05-08T04:46:24.755Z,11.45
2023-05-08T04:48:51.612Z,11.45
2023-05-08T04:51:18.540Z,11.35
2023-05-08T04:53:46.126Z,11.27
2023-05-08T04:56:13.989Z,10.50
2023-05-08T04:58:41.126Z,11.32
2023-05-08T05:01:08.161Z,11.60
2023-05-08T05:03:35.002Z,10.50
2023-05-08T05:06:02.807Z,11.80
2023-05-08T05:08:29.872Z,11.27
2023-05-08T05:10:56.959Z,10.30
2023-05-08T05:13:23.927Z,11.73
2023-05-08T05:15:54.202Z,10.55
2023-05-08T05:18:21.479Z,10.13
2023-05-08T05:20:48.609Z,10.23
2023-05-08T05:23:15.379Z,8.82
2023-05-08T05:25:42.383Z,9.95
2023-05-08T05:28:09.293Z,10.10
2023-05-08T05:30:36.232Z,10.13
2023-05-08T05:33:03.096Z,9.80
2023-05-08T05:35:29.892Z,10.52
2023-05-08T05:37:56.779Z,9.38
2023-05-08T05:40:23.612Z,9.65
2023-05-08T05:42:51.147Z,9.38
2023-05-08T05:45:18.476Z,9.55
2023-05-08T05:47:50.741Z,9.63
2023-05-08T05:50:18.606Z,10.90
2023-05-08T05:52:45.723Z,10.77
2023-05-08T05:55:13.313Z,10.65
2023-05-08T05:57:40.280Z,10.10
2023-05-08T06:00:08.391Z,9.52
2023-05-08T06:02:36.586Z,10.63
2023-05-08T06:05:04.848Z,10.00
2023-05-08T06:07:31.754Z,9.50
2023-05-08T06:09:59.690Z,9.75
2023-05-08T06:12:27.942Z,10.10
2023-05-08T06:14:55.291Z,9.48
2023-05-08T06:17:23.005Z,10.57
2023-05-08T06:19:54.358Z,9.55
2023-05-08T06:22:24.407Z,10.60
2023-05-08T06:24:55.068Z,9.40
2023-05-08T06:27:22.839Z,8.75
2023-05-08T06:29:53.386Z,9.15
2023-05-08T06:32:21.213Z,9.65
2023-05-08T06:34:48.445Z,9.75
2023-05-08T06:37:15.377Z,9.20
2023-05-08T06:39:42.188Z,8.95
2023-05-08T06:42:08.991Z,9.10
2023-05-08T06:44:36.053Z,8.93
2023-05-08T06:47:02.950Z,8.80
2023-05-08T06:49:30.006Z,8.82
2023-05-08T06:51:58.083Z,9.20
2023-05-08T06:54:25.313Z,9.02
2023-05-08T06:56:54.179Z,9.48
2023-05-08T06:59:23.257Z,8.98
2023-05-08T07:01:50.601Z,9.45
2023-05-08T07:04:17.457Z,8.95
2023-05-08T07:06:44.261Z,8.90
2023-05-08T07:09:12.123Z,9.63
2023-05-08T07:11:38.969Z,8.82
2023-05-08T07:14:06.247Z,8.80
2023-05-08T07:16:33.091Z,8.38
2023-05-08T07:18:59.888Z,8.65
2023-05-08T07:21:26.801Z,8.10
2023-05-08T07:23:54.603Z,7.70
2023-05-08T07:26:22.420Z,9.00
2023-05-08T07:28:50.733Z,8.25
2023-05-08T07:31:17.581Z,8.23
2023-05-08T07:33:44.356Z,8.45
2023-05-08T07:36:11.434Z,9.27
2023-05-08T07:38:38.256Z,8.27
2023-05-08T07:41:05.494Z,7.40
2023-05-08T07:43:32.434Z,7.95
2023-05-08T07:45:59.490Z,7.60
2023-05-08T07:48:26.265Z,7.38
2023-05-08T07:50:53.097Z,7.78
2023-05-08T07:53:19.910Z,6.85
2023-05-08T07:55:47.768Z,7.30
2023-05-08T07:58:14.685Z,7.15
2023-05-08T08:00:41.446Z,7.10
2023-05-08T08:03:08.348Z,7.07
2023-05-08T08:05:35.225Z,6.97
2023-05-08T08:08:02.133Z,6.80
2023-05-08T08:10:29.795Z,7.03
2023-05-08T08:12:56.622Z,7.70
2023-05-08T08:15:23.501Z,6.43
2023-05-08T08:17:50.290Z,6.78
2023-05-08T08:20:17.223Z,6.60
2023-05-08T08:22:44.041Z,7.13
2023-05-08T08:25:10.928Z,6.15
2023-05-08T08:27:38.013Z,7.10
2023-05-08T08:30:16.962Z,6.40
2023-05-08T08:32:45.797Z,6.38
2023-05-08T08:35:13.498Z,6.50
2023-05-08T08:37:40.509Z,6.18
2023-05-08T08:40:08.010Z,6.47
2023-05-08T08:42:35.060Z,6.40
2023-05-08T08:45:02.074Z,6.28
2023-05-08T08:47:34.639Z,6.32
2023-05-08T08:50:03.783Z,6.38
2023-05-08T08:52:40.954Z,5.60
2023-05-08T08:55:11.678Z,6.63
2023-05-08T08:57:45.819Z,5.95
2023-05-08T09:00:13.366Z,6.38
2023-05-08T09:02:40.373Z,5.90
2023-05-08T09:05:08.008Z,6.07
2023-05-08T09:07:34.888Z,6.57
2023-05-08T09:10:04.410Z,6.38
2023-05-08T09:12:31.654Z,5.80
2023-05-08T09:14:58.932Z,6.07
2023-05-08T09:17:25.901Z,6.43
2023-05-08T09:19:53.232Z,6.20
2023-05-08T09:22:23.666Z,6.25
2023-05-08T09:24:58.999Z,6.30
2023-05-08T09:27:28.059Z,7.10
2023-05-08T09:30:09.816Z,6.15
2023-05-08T09:32:39.463Z,6.28
2023-05-08T09:35:07.836Z,6.32
2023-05-08T09:37:41.849Z,6.60
2023-05-08T09:40:19.094Z,6.25
2023-05-08T09:42:47.692Z,6.68
2023-05-08T09:45:28.244Z,6.20
2023-05-08T09:47:55.234Z,6.30
2023-05-08T09:50:22.090Z,6.05
2023-05-08T09:52:50.739Z,5.57
2023-05-08T09:55:18.236Z,6.22
2023-05-08T09:57:59.166Z,6.00
2023-05-08T10:00:28.068Z,5.88
2023-05-08T10:03:02.839Z,6.15
2023-05-08T10:05:37.127Z,6.10
2023-05-08T10:08:23.621Z,5.70
2023-05-08T10:10:51.167Z,5.68
2023-05-08T10:13:18.062Z,5.00
2023-05-08T10:15:45.819Z,5.40
2023-05-08T10:18:17.170Z,5.30
2023-05-08T10:20:48.136Z,5.80
2023-05-08T10:23:17.530Z,5.50
2023-05-08T10:25:49.793Z,6.03
2023-05-08T10:28:37.048Z,6.50
2023-05-08T10:31:07.686Z,5.60
2023-05-08T10:33:35.732Z,5.93
2023-05-08T10:36:02.653Z,6.03
2023-05-08T10:38:31.182Z,5.43
2023-05-08T10:41:01.288Z,5.55
2023-05-08T10:43:29.727Z,5.22
2023-05-08T10:45:58.467Z,6.18
2023-05-08T10:48:31.136Z,5.60
2023-05-08T10:51:11.963Z,5.43
2023-05-08T10:53:52.451Z,5.55
2023-05-08T10:56:26.268Z,5.10
2023-05-08T10:58:58.037Z,5.53
2023-05-08T11:01:26.297Z,5.53
2023-05-08T11:03:55.928Z,5.10
2023-05-08T11:06:43.374Z,5.63
2023-05-08T11:09:28.443Z,5.35
2023-05-08T11:12:08.868Z,5.32
2023-05-08T11:14:39.390Z,5.53
2023-05-08T11:17:08.146Z,4.80
2023-05-08T11:19:35.951Z,5.45
2023-05-08T11:22:12.766Z,5.70
2023-05-08T11:24:41.445Z,5.20
2023-05-08T11:27:08.222Z,5.25
2023-05-08T11:29:36.211Z,5.15
2023-05-08T11:32:03.187Z,5.10
2023-05-08T11:34:46.035Z,4.60
2023-05-08T11:37:21.096Z,4.65
2023-05-08T11:39:48.666Z,5.32
2023-05-08T11:42:34.782Z,5.30
2023-05-08T11:45:13.539Z,4.88
2023-05-08T11:47:43.346Z,5.10
2023-05-08T11:50:12.904Z,5.35
2023-05-08T11:52:41.920Z,5.18
2023-05-08T11:55:10.921Z,5.43
2023-05-08T11:57:38.292Z,4.22
2023-05-08T12:00:10.148Z,4.75
2023-05-08T12:02:42.529Z,4.97
2023-05-08T12:05:11.116Z,4.93
2023-05-08T12:07:47.723Z,4.85
2023-05-08T12:10:16.119Z,4.68
2023-05-08T12:12:45.277Z,5.43
2023-05-08T12:15:14.618Z,5.13
2023-05-08T12:17:42.393Z,4.82
2023-05-08T12:20:14.649Z,5.15
2023-05-08T12:22:42.596Z,4.60
2023-05-08T12:25:11.807Z,5.10
2023-05-08T12:27:39.652Z,5.00
2023-05-08T12:30:14.460Z,5.40
2023-05-08T12:32:43.740Z,4.15
2023-05-08T12:35:12.604Z,4.55
2023-05-08T12:37:40.026Z,4.53
2023-05-08T12:40:21.999Z,4.88
2023-05-08T12:42:49.961Z,4.57
2023-05-08T12:45:40.529Z,4.65
2023-05-08T12:48:13.007Z,4.60
2023-05-08T12:50:44.248Z,4.67
2023-05-08T12:53:17.177Z,4.53
2023-05-08T12:55:55.310Z,4.78
2023-05-08T12:58:27.110Z,4.47
2023-05-08T13:01:03.194Z,4.90
2023-05-08T13:03:30.543Z,4.55
2023-05-08T13:05:58.525Z,5.05
2023-05-08T13:08:33.422Z,5.00
2023-05-08T13:11:01.351Z,5.03
2023-05-08T13:13:31.124Z,5.10
2023-05-08T13:15:58.381Z,4.30
2023-05-08T13:18:27.476Z,4.45
2023-05-08T13:20:56.139Z,4.57
2023-05-08T13:23:23.336Z,4.55
2023-05-08T13:25:51.222Z,4.57
2023-05-08T13:28:18.143Z,4.40
2023-05-08T13:30:45.054Z,5.03
2023-05-08T13:33:12.079Z,4.70
2023-05-08T13:35:39.043Z,4.57
2023-05-08T13:38:06.085Z,4.68
2023-05-08T13:40:33.166Z,4.32
2023-05-08T13:43:00.127Z,4.53
2023-05-08T13:45:27.095Z,5.25
2023-05-08T13:47:54.483Z,4.38
2023-05-08T13:50:21.834Z,4.53
2023-05-08T13:52:49.870Z,4.72
2023-05-08T13:55:17.710Z,4.30
2023-05-08T13:57:44.688Z,4.47
2023-05-08T14:00:12.195Z,4.03
2023-05-08T14:02:39.110Z,4.35
2023-05-08T14:05:08.245Z,4.00
2023-05-08T14:07:36.059Z,4.18
2023-05-08T14:10:03.318Z,4.13
2023-05-08T14:12:30.555Z,4.13
2023-05-08T14:14:58.158Z,4.05
2023-05-08T14:17:27.688Z,4.20
2023-05-08T14:19:54.583Z,3.83
2023-05-08T14:22:21.372Z,4.05
2023-05-08T14:24:48.171Z,3.67
2023-05-08T14:27:14.962Z,3.97
2023-05-08T14:29:41.783Z,4.13
2023-05-08T14:32:10.884Z,4.10
2023-05-08T14:34:37.759Z,4.10
2023-05-08T14:37:04.594Z,3.72
2023-05-08T14:39:31.457Z,4.15
2023-05-08T14:44:32.463Z,4.03
2023-05-08T14:46:59.291Z,4.10
2023-05-08T14:49:36.643Z,4.00
2023-05-08T14:52:05.528Z,3.92
2023-05-08T14:54:32.544Z,4.20
2023-05-08T14:56:59.549Z,3.97
2023-05-08T14:59:26.678Z,4.38
2023-05-08T15:01:53.616Z,3.80
2023-05-08T15:04:20.799Z,3.67
2023-05-08T15:06:47.798Z,3.42
2023-05-08T15:09:16.493Z,3.78
2023-05-08T15:11:43.537Z,3.95
2023-05-08T15:14:11.344Z,3.90
2023-05-08T15:16:38.342Z,7.10
2023-05-08T15:19:05.264Z,12.77
2023-05-08T15:21:32.220Z,4.50
2023-05-08T15:23:59.065Z,4.78
2023-05-08T15:26:26.036Z,3.35
2023-05-08T15:28:52.876Z,3.90
2023-05-08T15:31:19.788Z,3.53
2023-05-08T15:33:47.749Z,3.85
2023-05-08T15:36:15.011Z,3.83
2023-05-08T15:38:42.598Z,3.40
2023-05-08T15:41:14.609Z,3.65
2023-05-08T15:43:42.327Z,3.40
2023-05-08T15:46:09.180Z,3.60
2023-05-08T15:48:36.132Z,4.28
2023-05-08T15:51:03.077Z,4.00
2023-05-08T15:53:29.973Z,3.20
2023-05-08T15:55:57.258Z,3.20
2023-05-08T15:58:24.474Z,5.78
2023-05-08T16:00:51.503Z,3.35
2023-05-08T16:03:18.717Z,3.63
2023-05-08T16:05:45.804Z,3.08
2023-05-08T16:08:13.626Z,3.55
2023-05-08T16:10:41.450Z,4.10
2023-05-08T16:13:08.894Z,3.80
2023-05-08T16:15:38.787Z,3.33
2023-05-08T16:18:06.236Z,3.33
2023-05-08T16:20:35.102Z,3.88
2023-05-08T16:23:03.010Z,3.25
2023-05-08T16:25:29.926Z,3.38
2023-05-08T16:27:56.848Z,3.17
2023-05-08T16:30:23.705Z,3.10
2023-05-08T16:32:50.679Z,3.30
2023-05-08T16:35:19.368Z,2.95
2023-05-08T16:37:46.320Z,3.00
2023-05-08T16:40:13.266Z,2.85
2023-05-08T16:42:40.090Z,2.60
2023-05-08T16:45:08.099Z,2.97
2023-05-08T16:47:35.527Z,2.95
2023-05-08T16:50:03.102Z,3.17
2023-05-08T16:52:30.582Z,2.83
2023-05-08T16:54:57.474Z,2.88
2023-05-08T16:57:24.318Z,3.72
2023-05-08T16:59:51.897Z,2.90
2023-05-08T17:02:19.160Z,3.10
2023-05-08T17:04:47.481Z,2.92
2023-05-08T17:07:15.541Z,2.85
2023-05-08T17:09:42.751Z,2.47
2023-05-08T17:12:09.720Z,2.90
2023-05-08T17:14:40.523Z,2.70
2023-05-08T17:17:07.995Z,2.78
2023-05-08T17:19:35.347Z,3.00
2023-05-08T17:22:02.610Z,2.97
2023-05-08T17:24:30.415Z,2.88
2023-05-08T17:26:57.258Z,2.72
2023-05-08T17:29:24.344Z,3.05
2023-05-08T17:31:51.289Z,3.40
2023-05-08T17:34:18.172Z,3.38
2023-05-08T17:36:45.253Z,2.67
2023-05-08T17:39:12.486Z,3.20
2023-05-08T17:41:39.290Z,3.55
2023-05-08T17:44:07.004Z,3.42
2023-05-08T17:46:33.846Z,3.90
2023-05-08T17:49:00.771Z,3.30
2023-05-08T17:51:27.609Z,3.00
2023-05-08T17:53:56.036Z,3.20
2023-05-08T17:56:23.404Z,3.30
2023-05-08T17:58:52.354Z,3.50
2023-05-08T18:01:20.362Z,3.47
2023-05-08T18:03:50.517Z,3.05
2023-05-08T18:06:18.077Z,3.53
2023-05-08T18:08:45.810Z,3.13
2023-05-08T18:11:26.304Z,3.13
2023-05-08T18:13:53.924Z,3.67
2023-05-08T18:16:22.014Z,4.07
2023-05-08T18:18:49.711Z,3.88
2023-05-08T18:21:16.710Z,3.53
2023-05-08T18:23:43.640Z,2.83
2023-05-08T18:26:17.195Z,2.90
2023-05-08T18:31:11.905Z,2.72
2023-05-08T18:33:39.228Z,2.78
2023-05-08T18:36:07.014Z,3.05
2023-05-08T18:38:34.412Z,3.17
2023-05-08T18:41:05.156Z,3.47
2023-05-08T18:43:31.995Z,3.47
2023-05-08T18:46:00.502Z,2.92
2023-05-08T18:48:27.691Z,3.00
2023-05-08T18:50:58.317Z,3.33
2023-05-08T18:53:25.202Z,3.80
2023-05-08T18:55:52.850Z,3.33
2023-05-08T18:58:19.683Z,4.38
2023-05-08T19:00:46.556Z,3.88
2023-05-08T19:03:14.391Z,4.43
2023-05-08T19:05:41.924Z,4.88
2023-05-08T19:08:08.786Z,4.25
2023-05-08T19:10:35.589Z,4.65
2023-05-08T19:13:02.433Z,4.43
2023-05-08T19:15:29.565Z,4.82
2023-05-08T19:17:56.462Z,4.80
2023-05-08T19:20:23.426Z,4.20
2023-05-08T19:22:50.334Z,3.92
2023-05-08T19:25:17.127Z,4.50
2023-05-08T19:27:43.941Z,4.57
2023-05-08T19:30:11.521Z,5.13
2023-05-08T19:32:38.506Z,5.53
2023-05-08T19:35:05.694Z,5.95
2023-05-08T19:37:32.499Z,5.90
2023-05-08T19:39:59.292Z,5.15
2023-05-08T19:42:26.259Z,5.20
2023-05-08T19:44:53.044Z,4.90
2023-05-08T19:47:19.822Z,4.93
2023-05-08T19:49:46.619Z,5.97
2023-05-08T19:52:13.430Z,5.53
2023-05-08T19:54:40.323Z,5.97
2023-05-08T19:57:07.096Z,6.20
2023-05-08T19:59:34.005Z,5.75
2023-05-08T20:02:01.299Z,6.38
2023-05-08T20:04:28.530Z,5.63
2023-05-08T20:06:55.558Z,6.13
2023-05-08T20:09:22.562Z,6.07
2023-05-08T20:11:49.738Z,5.90
2023-05-08T20:14:16.605Z,5.75
2023-05-08T20:16:43.522Z,5.15
2023-05-08T20:19:10.519Z,5.28
2023-05-08T20:21:37.322Z,5.50
2023-05-08T20:24:04.428Z,5.28
2023-05-08T20:26:32.343Z,5.13
2023-05-08T20:28:59.784Z,5.28
2023-05-08T20:31:27.743Z,5.35
2023-05-08T20:33:54.724Z,4.72
2023-05-08T20:36:21.569Z,5.55
2023-05-08T20:38:48.396Z,5.07
2023-05-08T20:41:15.329Z,5.40
2023-05-08T20:43:42.141Z,5.28
2023-05-08T20:46:09.933Z,5.95
2023-05-08T20:48:38.336Z,5.50
2023-05-08T20:51:05.156Z,5.07
2023-05-08T20:53:32.689Z,5.28
2023-05-08T20:56:03.879Z,5.75
2023-05-08T20:58:31.291Z,5.80
2023-05-08T21:00:58.146Z,5.50
2023-05-08T21:03:25.136Z,5.50
2023-05-08T21:05:52.040Z,5.18
2023-05-08T21:08:26.343Z,6.35
2023-05-08T21:10:53.180Z,5.60
2023-05-08T21:13:20.166Z,5.63
2023-05-08T21:15:50.531Z,6.25
2023-05-08T21:18:17.641Z,6.60
2023-05-08T21:20:50.395Z,6.72
2023-05-08T21:23:18.743Z,6.93
2023-05-08T21:25:47.036Z,6.40
2023-05-08T21:28:15.144Z,5.93
2023-05-08T21:30:45.356Z,6.20
2023-05-08T21:33:15.740Z,6.25
2023-05-08T21:35:43.600Z,5.82
2023-05-08T21:38:13.642Z,5.80
2023-05-08T21:40:40.496Z,6.18
2023-05-08T21:43:08.507Z,6.00
2023-05-08T21:45:35.545Z,5.78
2023-05-08T21:48:02.959Z,5.97
2023-05-08T21:50:29.936Z,5.93
2023-05-08T21:52:57.064Z,6.53
2023-05-08T21:55:24.157Z,6.07
2023-05-08T21:57:51.153Z,6.70
2023-05-08T22:00:18.377Z,6.80
2023-05-08T22:02:45.482Z,7.57
2023-05-08T22:05:12.647Z,6.97
2023-05-08T22:07:39.657Z,6.97
2023-05-08T22:10:09.092Z,7.40
2023-05-08T22:12:36.102Z,6.50
2023-05-08T22:15:05.864Z,6.40
2023-05-08T22:17:36.660Z,6.72
2023-05-08T22:20:03.988Z,6.30
2023-05-08T22:22:31.438Z,6.55
2023-05-08T22:24:58.424Z,6.68
2023-05-08T22:27:25.214Z,6.82
2023-05-08T22:29:52.041Z,6.63
2023-05-08T22:32:19.011Z,6.25
2023-05-08T22:34:49.677Z,6.43
2023-05-08T22:37:17.562Z,7.20
2023-05-08T22:39:44.427Z,6.70
2023-05-08T22:42:11.585Z,6.80
2023-05-08T22:44:38.489Z,6.60
2023-05-08T22:47:05.931Z,7.15
2023-05-08T22:49:32.900Z,7.20
2023-05-08T22:51:59.978Z,7.32
2023-05-08T22:54:26.866Z,6.82
2023-05-08T22:56:53.716Z,6.53
2023-05-08T22:59:20.546Z,6.38
2023-05-08T23:01:47.454Z,5.85
2023-05-08T23:04:14.369Z,6.32
2023-05-08T23:06:41.339Z,6.47
2023-05-08T23:09:08.347Z,6.35
2023-05-08T23:11:35.245Z,6.97
2023-05-08T23:14:02.383Z,6.05
2023-05-08T23:16:29.565Z,6.78
2023-05-08T23:18:56.620Z,7.07
2023-05-08T23:21:23.533Z,6.45
2023-05-08T23:23:50.751Z,6.45
2023-05-08T23:26:18.330Z,7.07
2023-05-08T23:28:45.137Z,6.60
2023-05-08T23:31:11.991Z,6.45
2023-05-08T23:33:38.914Z,7.07
2023-05-08T23:36:06.231Z,6.68
2023-05-08T23:38:33.038Z,6.97
2023-05-08T23:40:59.821Z,7.72
2023-05-08T23:43:27.007Z,6.60
2023-05-08T23:45:53.796Z,7.30
2023-05-08T23:48:21.290Z,7.60
2023-05-08T23:50:48.228Z,6.97
2023-05-08T23:53:15.411Z,7.40
2023-05-08T23:55:42.275Z,7.88
2023-05-08T23:58:09.081Z,7.03
